BFI weather

Boeing Field King County International Airport
Seattle, Washington, United States

Public forecast

Using degrees Fahrenheit for public forecast. Weather courtesy of forecast.io.

Current aviation weather report (METAR) for Boeing Field King County International Airport

Retrieved 2019/10/17 01:53 UTC (20 minutes ago):

KBFI 170153Z 17010KT 10SM -RA SCT037 OVC085 13/11 A2964 RMK AO2 SLP036 P0003 T01330111

Aviation forecast (TAF) for Boeing Field King County International Airport

Retrieved 2019-10-17 00:22 UTC (2 hours ago):

TAF KBFI 162320Z 1700/1724 16010KT 5SM RA BR OVC035 FM170200 16006KT P6SM -SHRA BKN040 BKN050 FM171200 16008KT P6SM -SHRA BKN025 OVC040 FM171600 18010KT P6SM -RA BKN020 OVC040 TEMPO 1716/1719 3SM RA BR OVC020 FM172100 17010G18KT P6SM -SHRA OVC030